createdAt,value
2022-11-03T00:01:51.642Z,6.18
2022-11-03T00:06:56.654Z,6.20
2022-11-03T00:12:00.399Z,6.23
2022-11-03T00:17:03.708Z,6.28
2022-11-03T00:22:07.125Z,6.34
2022-11-03T00:27:10.739Z,6.37
2022-11-03T00:32:14.050Z,6.38
2022-11-03T00:37:17.361Z,6.37
2022-11-03T00:42:20.569Z,6.35
2022-11-03T00:47:24.401Z,6.31
2022-11-03T00:52:27.701Z,6.25
2022-11-03T00:57:31.011Z,6.16
2022-11-03T01:02:34.179Z,6.04
2022-11-03T01:07:37.633Z,5.92
2022-11-03T01:12:40.841Z,5.82
2022-11-03T01:17:44.256Z,5.75
2022-11-03T01:22:47.574Z,5.68
2022-11-03T01:27:50.812Z,5.64
2022-11-03T01:32:54.186Z,5.61
2022-11-03T01:37:57.291Z,5.60
2022-11-03T01:43:16.679Z,5.61
2022-11-03T01:48:22.550Z,5.68
2022-11-03T01:53:27.601Z,5.78
2022-11-03T01:58:36.042Z,5.83
2022-11-03T02:03:48.047Z,5.83
2022-11-03T02:08:57.523Z,5.84
2022-11-03T02:14:00.912Z,5.83
2022-11-03T02:19:07.842Z,5.79
2022-11-03T02:24:39.278Z,5.77
2022-11-03T02:29:42.793Z,5.74
2022-11-03T02:34:55.012Z,5.66
2022-11-03T02:40:04.616Z,5.57
2022-11-03T02:45:16.374Z,5.48
2022-11-03T02:50:22.652Z,5.40
2022-11-03T02:55:46.759Z,5.35
2022-11-03T03:01:02.732Z,5.29
2022-11-03T03:06:11.501Z,5.20
2022-11-03T03:11:15.121Z,5.13
2022-11-03T03:16:27.237Z,5.04
2022-11-03T03:21:37.821Z,4.97
2022-11-03T03:26:49.929Z,4.92
2022-11-03T03:32:04.095Z,4.85
2022-11-03T03:37:09.177Z,4.77
2022-11-03T03:42:15.524Z,4.71
2022-11-03T03:47:30.180Z,4.66
2022-11-03T03:52:35.261Z,4.61
2022-11-03T03:57:38.470Z,4.56
2022-11-03T04:02:42.910Z,4.50
2022-11-03T04:07:49.083Z,4.47
2022-11-03T04:13:11.032Z,4.46
2022-11-03T04:18:33.184Z,4.46
2022-11-03T04:23:36.391Z,4.46
2022-11-03T04:28:41.240Z,4.49
2022-11-03T04:33:45.002Z,4.53
2022-11-03T04:38:49.735Z,4.59
2022-11-03T04:43:53.217Z,4.62
2022-11-03T04:48:59.198Z,4.65
2022-11-03T04:54:13.660Z,4.65
2022-11-03T04:59:17.586Z,4.67
2022-11-03T05:04:21.412Z,4.66
2022-11-03T05:09:30.560Z,4.64
2022-11-03T05:14:34.276Z,4.61
2022-11-03T05:19:40.370Z,4.61
2022-11-03T05:24:44.788Z,4.58
2022-11-03T05:29:49.777Z,4.55
2022-11-03T05:34:56.146Z,4.52
2022-11-03T05:40:04.958Z,4.53
2022-11-03T05:45:33.054Z,4.54
2022-11-03T05:50:36.769Z,4.57
2022-11-03T05:55:40.700Z,4.61
2022-11-03T06:00:48.560Z,4.65
2022-11-03T06:05:53.490Z,4.71
2022-11-03T06:10:58.920Z,4.79
2022-11-03T06:16:41.963Z,4.87
2022-11-03T06:21:45.785Z,4.99
2022-11-03T06:26:51.655Z,5.13
2022-11-03T06:31:58.307Z,5.30
2022-11-03T06:37:14.566Z,5.51
2022-11-03T06:42:24.647Z,5.75
2022-11-03T06:47:30.189Z,6.65
2022-11-03T06:52:38.295Z,9.63
2022-11-03T06:57:44.851Z,13.20
2022-11-03T07:03:09.344Z,16.38
2022-11-03T07:08:40.578Z,19.43
2022-11-03T07:13:44.703Z,21.89
2022-11-03T07:18:48.319Z,23.84
2022-11-03T07:23:52.253Z,25.51
2022-11-03T07:28:55.451Z,26.52
2022-11-03T07:33:59.585Z,27.41
2022-11-03T07:39:06.953Z,27.92
2022-11-03T07:44:17.190Z,28.68
2022-11-03T07:49:27.340Z,29.42
2022-11-03T07:54:33.631Z,30.64
2022-11-03T07:59:42.352Z,31.57
2022-11-03T08:04:45.764Z,32.03
2022-11-03T08:09:49.174Z,32.54
2022-11-03T08:14:52.485Z,32.90
2022-11-03T08:19:55.902Z,33.13
2022-11-03T08:24:59.206Z,33.29
2022-11-03T08:30:02.523Z,33.44
2022-11-03T08:35:06.748Z,33.81
2022-11-03T08:40:10.782Z,34.20
2022-11-03T08:45:14.193Z,34.44
2022-11-03T08:50:18.937Z,34.59
2022-11-03T08:55:22.346Z,34.94
2022-11-03T09:00:25.656Z,35.04
2022-11-03T09:05:29.278Z,34.99
2022-11-03T09:10:35.656Z,34.83
2022-11-03T09:15:42.169Z,34.64
2022-11-03T09:20:45.554Z,34.47
2022-11-03T09:25:48.867Z,34.38
2022-11-03T09:30:52.176Z,34.33
2022-11-03T09:35:55.488Z,33.91
2022-11-03T09:40:59.480Z,33.68
2022-11-03T09:46:02.924Z,33.57
2022-11-03T09:51:10.945Z,32.97
2022-11-03T09:56:15.691Z,30.65
2022-11-03T10:01:19.552Z,26.61
2022-11-03T10:06:22.823Z,23.33
2022-11-03T10:11:26.253Z,20.85
2022-11-03T10:16:29.955Z,18.77
2022-11-03T10:21:38.282Z,17.33
2022-11-03T10:26:50.677Z,16.23
2022-11-03T10:31:56.430Z,15.34
2022-11-03T10:37:27.744Z,14.64
2022-11-03T10:42:35.206Z,14.12
2022-11-03T10:47:38.970Z,13.77
2022-11-03T10:52:43.211Z,13.50
2022-11-03T10:57:51.968Z,13.25
2022-11-03T11:03:00.421Z,13.04
2022-11-03T11:08:03.651Z,12.89
2022-11-03T11:13:19.388Z,12.82
2022-11-03T11:18:30.743Z,12.74
2022-11-03T11:23:34.093Z,12.67
2022-11-03T11:28:42.321Z,12.63
2022-11-03T11:33:45.631Z,12.60
2022-11-03T11:38:48.839Z,12.57
2022-11-03T11:43:51.940Z,12.51
2022-11-03T11:49:04.469Z,12.45
2022-11-03T11:54:18.888Z,12.37
2022-11-03T11:59:25.694Z,12.28
2022-11-03T12:04:33.471Z,12.19
2022-11-03T12:09:36.755Z,12.12
2022-11-03T12:14:40.990Z,12.07
2022-11-03T12:19:47.494Z,12.01
2022-11-03T12:25:05.125Z,11.92
2022-11-03T12:30:20.194Z,11.86
2022-11-03T12:35:23.924Z,11.84
2022-11-03T12:40:27.543Z,11.84
2022-11-03T12:45:30.748Z,11.82
2022-11-03T12:50:35.084Z,11.80
2022-11-03T12:55:42.132Z,11.76
2022-11-03T13:00:52.175Z,11.69
2022-11-03T13:05:59.515Z,11.61
2022-11-03T13:11:03.685Z,11.51
2022-11-03T13:16:07.611Z,11.41
2022-11-03T13:21:10.920Z,11.31
2022-11-03T13:26:14.230Z,11.25
2022-11-03T13:31:17.517Z,11.22
2022-11-03T13:36:20.930Z,11.23
2022-11-03T13:41:24.469Z,11.23
2022-11-03T13:46:27.691Z,11.19
2022-11-03T13:51:30.989Z,11.11
2022-11-03T14:07:21.474Z,10.97
2022-11-03T14:12:35.022Z,10.92
2022-11-03T14:17:39.829Z,10.87
2022-11-03T14:22:43.075Z,10.79
2022-11-03T14:27:47.660Z,10.66
2022-11-03T14:32:54.207Z,10.51
2022-11-03T14:38:01.298Z,10.34
2022-11-03T14:43:05.155Z,10.16
2022-11-03T14:48:09.569Z,9.97
2022-11-03T14:53:12.983Z,9.75
2022-11-03T14:58:16.796Z,9.51
2022-11-03T15:03:20.218Z,9.26
2022-11-03T15:08:24.442Z,9.06
2022-11-03T15:13:27.785Z,8.86
2022-11-03T15:18:32.595Z,8.61
2022-11-03T15:28:59.696Z,8.10
2022-11-03T15:34:06.145Z,7.88
2022-11-03T15:39:13.894Z,7.68
2022-11-03T15:44:17.204Z,7.51
2022-11-03T15:49:21.444Z,7.38
2022-11-03T15:54:24.748Z,7.28
2022-11-03T15:59:27.954Z,7.17
2022-11-03T16:04:31.166Z,7.05
2022-11-03T16:09:34.480Z,6.92
2022-11-03T16:14:37.581Z,6.78
2022-11-03T16:19:40.891Z,6.65
2022-11-03T16:24:46.684Z,6.51
2022-11-03T16:29:50.071Z,6.39
2022-11-03T16:34:53.177Z,6.31
2022-11-03T16:39:56.943Z,6.25
2022-11-03T16:45:00.922Z,6.19
2022-11-03T16:50:09.252Z,6.10
2022-11-03T16:55:13.958Z,5.96
2022-11-03T17:00:22.732Z,5.78
2022-11-03T17:05:26.452Z,5.62
2022-11-03T17:10:32.935Z,5.49
2022-11-03T17:15:36.148Z,5.40
2022-11-03T17:20:39.556Z,5.33
2022-11-03T17:25:43.379Z,5.25
2022-11-03T17:30:46.586Z,5.18
2022-11-03T17:35:50.150Z,5.14
2022-11-03T17:40:54.243Z,5.12
2022-11-03T17:45:57.752Z,5.07
2022-11-03T17:51:01.845Z,4.97
2022-11-03T17:56:28.918Z,4.85
2022-11-03T18:01:31.780Z,4.72
2022-11-03T18:06:35.257Z,4.55
2022-11-03T18:11:59.154Z,4.36
2022-11-03T18:17:04.088Z,4.24
2022-11-03T18:22:10.125Z,4.10
2022-11-03T18:27:17.088Z,4.02
2022-11-03T18:32:23.407Z,3.95
2022-11-03T18:37:26.837Z,3.94
2022-11-03T18:42:30.482Z,3.95
2022-11-03T18:47:34.506Z,4.01
2022-11-03T18:52:42.329Z,4.05
2022-11-03T18:57:45.866Z,4.04
2022-11-03T19:02:50.992Z,4.02
2022-11-03T19:07:55.238Z,4.05
2022-11-03T19:12:58.536Z,4.06
2022-11-03T19:18:05.435Z,4.06
2022-11-03T19:23:10.332Z,4.03
2022-11-03T19:28:16.964Z,3.99
2022-11-03T19:33:24.589Z,3.95
2022-11-03T19:38:27.988Z,3.91
2022-11-03T19:43:34.755Z,3.87
2022-11-03T19:48:39.119Z,3.82
2022-11-03T19:53:47.172Z,3.84
2022-11-03T19:58:51.163Z,3.88
2022-11-03T20:03:55.031Z,3.87
2022-11-03T20:08:58.604Z,3.84
2022-11-03T20:14:04.346Z,3.80
2022-11-03T20:19:07.693Z,3.78
2022-11-03T20:24:15.876Z,3.76
2022-11-03T20:29:19.373Z,3.72
2022-11-03T20:39:31.372Z,3.52
2022-11-03T20:44:34.790Z,3.44
2022-11-03T20:49:38.198Z,3.33
2022-11-03T20:54:45.014Z,3.21
2022-11-03T20:59:49.905Z,3.17
2022-11-03T21:04:54.525Z,3.16
2022-11-03T21:09:59.309Z,3.16
2022-11-03T21:15:24.491Z,3.20
2022-11-03T21:20:33.256Z,3.29
2022-11-03T21:25:36.903Z,3.35
2022-11-03T21:30:40.828Z,3.36
2022-11-03T21:35:45.159Z,3.37
2022-11-03T21:41:12.331Z,3.38
2022-11-03T21:46:15.649Z,3.41
2022-11-03T21:51:19.365Z,3.36
2022-11-03T21:56:25.852Z,3.30
2022-11-03T22:01:29.208Z,3.31
2022-11-03T22:06:32.874Z,3.40
2022-11-03T22:11:36.187Z,3.52
2022-11-03T22:16:43.082Z,3.70
2022-11-03T22:22:04.828Z,3.86
2022-11-03T22:27:08.358Z,3.97
2022-11-03T22:32:15.465Z,4.04
2022-11-03T22:37:18.619Z,4.09
2022-11-03T22:42:41.040Z,4.17
2022-11-03T22:47:44.521Z,4.30
2022-11-03T22:52:47.729Z,4.37
2022-11-03T22:57:51.140Z,4.39
2022-11-03T23:02:54.350Z,4.37
2022-11-03T23:07:58.172Z,4.36
2022-11-03T23:13:01.788Z,4.38
2022-11-03T23:18:28.345Z,4.46
2022-11-03T23:23:51.455Z,4.52
2022-11-03T23:28:54.934Z,4.55
2022-11-03T23:34:01.937Z,4.59
2022-11-03T23:39:06.547Z,4.58
2022-11-03T23:44:14.501Z,4.61
2022-11-03T23:49:17.904Z,4.63
2022-11-03T23:54:20.909Z,4.69
2022-11-03T23:59:24.833Z,4.78
